Time;durP1;ratioP1;P1;durP2;ratioP2;P2;SDS_P1;SDS_P2;PMS_P1;PMS_P2;Temp;Humidity;BMP_temperature;BMP_pressure;BME280_temperature;BME280_humidity;BME280_pressure;Samples;Min_cycle;Max_cycle;Signal;HPM_P1;HPM_P2
2023/07/28 00:02:11;;;;;;;16.02;9.30;;;;;;;-147.95;100.00;58458.38;4996259;28;20400;-79
2023/07/28 00:04:57;;;;;;;14.73;8.63;;;;;;;-147.95;100.00;58458.38;5003027;28;20096;-79
2023/07/28 00:07:42;;;;;;;14.18;8.10;;;;;;;-147.95;100.00;58458.38;4986300;28;20049;-79
2023/07/28 00:10:28;;;;;;;14.15;8.18;;;;;;;-147.95;100.00;58458.38;4978172;28;20117;-79
2023/07/28 00:13:14;;;;;;;15.45;8.82;;;;;;;-147.95;100.00;58458.38;4995460;28;20115;-79
2023/07/28 00:16:00;;;;;;;20.25;8.50;;;;;;;-147.95;100.00;58458.38;4977171;28;20053;-79
2023/07/28 00:18:45;;;;;;;17.27;8.05;;;;;;;-147.95;100.00;58458.38;4992436;28;20042;-79
2023/07/28 00:21:31;;;;;;;12.20;7.82;;;;;;;-147.95;100.00;58458.38;4993152;28;20377;-78
2023/07/28 00:24:18;;;;;;;17.13;9.43;;;;;;;-147.95;100.00;58458.38;5000961;28;20125;-79
2023/07/28 00:27:04;;;;;;;22.95;8.77;;;;;;;-147.95;100.00;58458.38;5005294;28;20129;-79
2023/07/28 00:29:50;;;;;;;18.88;8.20;;;;;;;-147.95;100.00;58458.38;4990747;28;20037;-78
2023/07/28 00:32:36;;;;;;;16.20;8.20;;;;;;;-147.95;100.00;58458.38;4990636;28;20042;-79
2023/07/28 00:35:21;;;;;;;11.23;7.82;;;;;;;-147.95;100.00;58458.38;5002153;28;20037;-79
2023/07/28 00:38:09;;;;;;;15.43;8.07;;;;;;;-147.95;100.00;58458.38;4979213;28;20042;-79
2023/07/28 00:40:54;;;;;;;12.32;7.45;;;;;;;-147.95;100.00;58458.38;5003355;28;20050;-78
2023/07/28 00:43:40;;;;;;;15.27;7.72;;;;;;;-147.95;100.00;58458.38;4998776;28;20043;-79
2023/07/28 00:46:26;;;;;;;14.52;7.97;;;;;;;-147.95;100.00;58458.38;5000281;28;20077;-78
2023/07/28 00:49:12;;;;;;;11.93;7.60;;;;;;;-147.95;100.00;58458.38;4981481;28;20041;-78
2023/07/28 00:51:57;;;;;;;16.60;7.80;;;;;;;-147.95;100.00;58458.38;5001326;28;20034;-78
2023/07/28 00:54:43;;;;;;;15.52;7.72;;;;;;;-147.95;100.00;58458.38;5004432;28;20037;-78
2023/07/28 00:57:29;;;;;;;14.07;6.82;;;;;;;-147.95;100.00;58458.38;4996214;28;20505;-78
2023/07/28 01:00:15;;;;;;;15.40;7.40;;;;;;;-147.95;100.00;58458.38;4995627;28;20091;-78
2023/07/28 01:03:01;;;;;;;14.15;7.38;;;;;;;-147.95;100.00;58458.38;4984735;28;20045;-78
2023/07/28 01:06:27;;;;;;;12.43;6.28;;;;;;;-147.95;100.00;58458.38;5003104;28;20062;-77
2023/07/28 01:09:18;;;;;;;14.02;6.68;;;;;;;-147.95;100.00;58458.38;5005243;28;20042;-78
2023/07/28 01:12:09;;;;;;;12.27;6.63;;;;;;;-147.95;100.00;58458.38;5004473;28;20121;-78
2023/07/28 01:14:54;;;;;;;10.95;5.85;;;;;;;-147.95;100.00;58458.38;5000102;28;20057;-78
2023/07/28 01:17:42;;;;;;;15.85;6.80;;;;;;;-147.95;100.00;58458.38;5011557;28;20029;-78
2023/07/28 01:20:31;;;;;;;11.93;6.75;;;;;;;-147.95;100.00;58458.38;4998741;28;20041;-78
2023/07/28 01:23:28;;;;;;;14.90;6.55;;;;;;;-147.95;100.00;58458.38;5012001;28;20033;-78
2023/07/28 01:26:16;;;;;;;14.90;6.55;;;;;;;-147.95;100.00;58458.38;5002591;28;20065;-78
2023/07/28 01:29:04;;;;;;;14.40;6.68;;;;;;;-147.95;100.00;58458.38;5008414;28;20049;-78
2023/07/28 01:31:51;;;;;;;13.05;7.05;;;;;;;-147.95;100.00;58458.38;5012852;28;20038;-79
2023/07/28 01:34:37;;;;;;;13.48;6.78;;;;;;;-147.95;100.00;58458.38;5009665;28;20127;-79
2023/07/28 01:37:23;;;;;;;17.98;7.20;;;;;;;-147.95;100.00;58458.38;4994451;28;20045;-78
2023/07/28 01:40:10;;;;;;;14.80;6.97;;;;;;;-147.95;100.00;58458.38;5001196;28;20495;-78
2023/07/28 01:42:56;;;;;;;20.85;7.65;;;;;;;-147.95;100.00;58458.38;4969573;28;20405;-78
2023/07/28 01:45:42;;;;;;;20.20;8.48;;;;;;;-147.95;100.00;58458.38;5009263;28;20042;-79
2023/07/28 01:48:29;;;;;;;25.30;8.55;;;;;;;-147.95;100.00;58458.38;5005537;28;20527;-78
2023/07/28 01:51:15;;;;;;;19.67;8.50;;;;;;;-147.95;100.00;58458.38;4981420;28;20105;-78
2023/07/28 01:54:01;;;;;;;24.35;9.05;;;;;;;-147.95;100.00;58458.38;5009591;28;20489;-79
2023/07/28 01:56:46;;;;;;;31.35;9.50;;;;;;;-147.95;100.00;58458.38;4971235;28;20146;-79
2023/07/28 01:59:32;;;;;;;25.85;8.90;;;;;;;-147.95;100.00;58458.38;4979533;28;20407;-79
2023/07/28 02:02:18;;;;;;;44.03;10.82;;;;;;;-147.95;100.00;58458.38;5001973;28;20095;-77
2023/07/28 02:05:04;;;;;;;36.85;10.18;;;;;;;-147.95;100.00;58458.38;4994737;28;20081;-78
2023/07/28 02:07:50;;;;;;;42.45;10.95;;;;;;;-147.95;100.00;58458.38;4995800;28;20045;-77
2023/07/28 02:10:35;;;;;;;44.40;11.20;;;;;;;-147.95;100.00;58458.38;5004146;28;20049;-78
2023/07/28 02:13:21;;;;;;;41.20;11.40;;;;;;;-147.95;100.00;58458.38;5014280;28;20069;-78
2023/07/28 02:16:07;;;;;;;44.97;10.52;;;;;;;-147.95;100.00;58458.38;5011617;28;20042;-77
2023/07/28 02:18:54;;;;;;;39.63;10.80;;;;;;;-147.95;100.00;58458.38;5009612;28;20042;-77
2023/07/28 02:21:39;;;;;;;51.05;10.90;;;;;;;-147.95;100.00;58458.38;4986105;28;21264;-78
2023/07/28 02:24:25;;;;;;;49.72;12.38;;;;;;;-147.95;100.00;58458.38;5008891;28;20053;-78
2023/07/28 02:27:11;;;;;;;53.83;12.65;;;;;;;-147.95;100.00;58458.38;5012603;28;20050;-77
2023/07/28 02:29:57;;;;;;;61.95;13.25;;;;;;;-147.95;100.00;58458.38;5021507;28;20125;-78
2023/07/28 02:32:43;;;;;;;53.42;12.40;;;;;;;-147.95;100.00;58458.38;4997878;28;20053;-78
2023/07/28 02:35:29;;;;;;;56.90;13.27;;;;;;;-147.95;100.00;58458.38;5006957;28;20056;-78
2023/07/28 02:38:14;;;;;;;65.15;13.60;;;;;;;-147.95;100.00;58458.38;5007755;28;20046;-78
2023/07/28 02:41:00;;;;;;;79.72;13.90;;;;;;;-147.95;100.00;58458.38;5003164;28;20034;-78
2023/07/28 02:43:46;;;;;;;73.15;14.15;;;;;;;-147.95;100.00;58458.38;5001929;28;20041;-78
2023/07/28 02:46:32;;;;;;;67.65;13.13;;;;;;;-147.95;100.00;58458.38;4979930;28;20042;-78
2023/07/28 02:49:17;;;;;;;71.05;12.75;;;;;;;-147.95;100.00;58458.38;5001019;28;20464;-78
2023/07/28 02:52:03;;;;;;;62.58;12.82;;;;;;;-147.95;100.00;58458.38;5010373;28;20425;-78
2023/07/28 02:54:50;;;;;;;79.47;13.13;;;;;;;-147.95;100.00;58458.38;5001812;28;20173;-78
2023/07/28 02:57:36;;;;;;;70.85;13.23;;;;;;;-147.95;100.00;58458.38;5012307;28;20045;-78
2023/07/28 03:00:21;;;;;;;72.45;14.32;;;;;;;-147.95;100.00;58458.38;5007575;28;20045;-78
2023/07/28 03:03:12;;;;;;;85.25;15.80;;;;;;;-147.95;100.00;58458.38;5019884;28;20045;-78
2023/07/28 03:05:58;;;;;;;85.13;16.90;;;;;;;-147.95;100.00;58458.38;5011545;28;20080;-78
2023/07/28 03:08:43;;;;;;;81.38;14.93;;;;;;;-147.95;100.00;58458.38;5018940;28;20124;-77
2023/07/28 03:11:29;;;;;;;85.05;14.60;;;;;;;-147.95;100.00;58458.38;4989233;28;20125;-78
2023/07/28 03:14:15;;;;;;;93.38;15.30;;;;;;;-147.95;100.00;58458.38;4999390;28;20050;-78
2023/07/28 03:17:02;;;;;;;90.85;15.95;;;;;;;-147.95;100.00;58458.38;5015104;28;20045;-78
2023/07/28 03:19:47;;;;;;;103.35;15.93;;;;;;;-147.95;100.00;58458.38;4996018;28;20398;-78
2023/07/28 03:22:33;;;;;;;105.28;16.85;;;;;;;-147.95;100.00;58458.38;5001303;28;20327;-78
2023/07/28 03:25:19;;;;;;;113.22;19.52;;;;;;;-147.95;100.00;58458.38;5008691;28;20446;-78
2023/07/28 03:28:05;;;;;;;111.90;18.65;;;;;;;-147.95;100.00;58458.38;4995837;28;20400;-78
2023/07/28 03:30:51;;;;;;;111.70;18.73;;;;;;;-147.95;100.00;58458.38;5003358;28;20038;-79
2023/07/28 03:33:36;;;;;;;126.57;20.30;;;;;;;-147.95;100.00;58458.38;5010951;28;20061;-78
2023/07/28 03:36:22;;;;;;;122.72;20.92;;;;;;;-147.95;100.00;58458.38;5002621;28;20049;-78
2023/07/28 03:39:08;;;;;;;138.15;22.80;;;;;;;-147.95;100.00;58458.38;4981374;28;20053;-78
2023/07/28 03:41:54;;;;;;;123.00;21.02;;;;;;;-147.95;100.00;58458.38;4984364;28;20046;-78
2023/07/28 03:44:41;;;;;;;145.60;23.38;;;;;;;-147.95;100.00;58458.38;4996683;28;20110;-78
2023/07/28 03:47:27;;;;;;;140.93;23.55;;;;;;;-147.95;100.00;58458.38;5007443;28;20066;-78
2023/07/28 03:50:12;;;;;;;125.00;20.50;;;;;;;-147.95;100.00;58458.38;5002125;28;20034;-78
2023/07/28 03:52:58;;;;;;;147.25;21.30;;;;;;;-147.95;100.00;58458.38;5008208;28;20054;-78
2023/07/28 03:55:44;;;;;;;132.32;22.90;;;;;;;-147.95;100.00;58458.38;4998533;28;20057;-79
2023/07/28 03:58:30;;;;;;;144.45;22.55;;;;;;;-147.95;100.00;58458.38;5007693;28;20100;-78
2023/07/28 04:01:15;;;;;;;141.13;22.60;;;;;;;-147.95;100.00;58458.38;5002809;28;20116;-78
2023/07/28 04:04:03;;;;;;;157.25;24.23;;;;;;;-147.95;100.00;58458.38;5010605;28;20612;-79
2023/07/28 04:06:50;;;;;;;144.27;23.65;;;;;;;-147.95;100.00;58458.38;4984791;28;20054;-78
2023/07/28 04:09:36;;;;;;;181.15;26.42;;;;;;;-147.95;100.00;58458.38;5007288;28;20069;-78
2023/07/28 04:12:21;;;;;;;161.00;23.70;;;;;;;-147.95;100.00;58458.38;5006624;28;20040;-78
2023/07/28 04:15:08;;;;;;;162.05;25.83;;;;;;;-147.95;100.00;58458.38;5001724;28;20493;-79
2023/07/28 04:17:54;;;;;;;144.25;24.20;;;;;;;-147.95;100.00;58458.38;5009966;28;20081;-79
2023/07/28 04:20:39;;;;;;;153.70;26.33;;;;;;;-147.95;100.00;58458.38;4984352;28;20064;-81
2023/07/28 04:23:25;;;;;;;151.38;23.75;;;;;;;-147.95;100.00;58458.38;4996590;28;20532;-82
2023/07/28 04:26:11;;;;;;;130.05;26.20;;;;;;;-147.95;100.00;58458.38;4991858;28;20046;-80
2023/07/28 04:28:56;;;;;;;152.13;28.40;;;;;;;-147.95;100.00;58458.38;5007677;28;20046;-81
2023/07/28 04:31:42;;;;;;;137.00;26.77;;;;;;;-147.95;100.00;58458.38;4997024;28;20065;-81
2023/07/28 04:34:28;;;;;;;164.00;29.02;;;;;;;-147.95;100.00;58458.38;5003848;28;20057;-81
2023/07/28 04:37:14;;;;;;;143.57;28.20;;;;;;;-147.95;100.00;58458.38;5011979;28;20034;-82
2023/07/28 04:39:59;;;;;;;155.00;29.02;;;;;;;-147.95;100.00;58458.38;4995210;28;20119;-82
2023/07/28 04:42:46;;;;;;;154.25;29.17;;;;;;;-147.95;100.00;58458.38;4997883;28;20081;-81
2023/07/28 04:45:31;;;;;;;139.25;28.48;;;;;;;-147.95;100.00;58458.38;5003039;28;20518;-82
2023/07/28 04:48:17;;;;;;;157.20;29.95;;;;;;;-147.95;100.00;58458.38;4996285;28;20080;-76
2023/07/28 04:51:03;;;;;;;161.63;32.45;;;;;;;-147.95;100.00;58458.38;5007911;28;20113;-79
2023/07/28 04:53:49;;;;;;;157.85;30.65;;;;;;;-147.95;100.00;58458.38;5006627;28;20450;-78
2023/07/28 04:56:34;;;;;;;154.52;30.77;;;;;;;-147.95;100.00;58458.38;5003421;28;20073;-78
2023/07/28 04:59:20;;;;;;;169.15;30.45;;;;;;;-147.95;100.00;58458.38;5005954;28;20042;-78
2023/07/28 05:02:06;;;;;;;153.25;31.00;;;;;;;-147.95;100.00;58458.38;5009525;28;20397;-78
2023/07/28 05:04:52;;;;;;;164.73;32.70;;;;;;;-147.95;100.00;58458.38;5009281;28;20124;-78
2023/07/28 05:07:37;;;;;;;161.45;33.28;;;;;;;-147.95;100.00;58458.38;4981323;28;20046;-78
2023/07/28 05:10:23;;;;;;;165.55;31.95;;;;;;;-147.95;100.00;58458.38;5004573;28;20037;-78
2023/07/28 05:13:09;;;;;;;196.10;36.13;;;;;;;-147.95;100.00;58458.38;4987715;28;20038;-78
2023/07/28 05:15:55;;;;;;;209.77;34.92;;;;;;;-147.95;100.00;58458.38;5006683;28;20058;-78
2023/07/28 05:18:42;;;;;;;198.32;35.45;;;;;;;-147.95;100.00;58458.38;5007781;28;20046;-78
2023/07/28 05:21:28;;;;;;;192.60;33.22;;;;;;;-147.95;100.00;58458.38;5006284;28;20559;-78
2023/07/28 05:24:14;;;;;;;174.65;34.95;;;;;;;-147.95;100.00;58458.38;5003246;28;20042;-78
2023/07/28 05:27:00;;;;;;;194.65;35.25;;;;;;;-147.95;100.00;58458.38;5005497;28;20140;-78
2023/07/28 05:29:46;;;;;;;188.43;36.38;;;;;;;-147.95;100.00;58458.38;5003537;28;20567;-78
2023/07/28 05:32:32;;;;;;;216.82;38.65;;;;;;;-147.95;100.00;58458.38;4999089;28;20121;-78
2023/07/28 05:35:17;;;;;;;227.13;38.20;;;;;;;-147.95;100.00;58458.38;5008764;28;20038;-78
2023/07/28 05:38:03;;;;;;;214.98;39.83;;;;;;;-147.95;100.00;58458.38;4994685;28;20053;-78
2023/07/28 05:41:00;;;;;;;226.32;43.65;;;;;;;-147.95;100.00;58458.38;4976788;28;20046;-78
2023/07/28 05:43:46;;;;;;;251.63;43.70;;;;;;;-147.95;100.00;58458.38;5005472;28;20069;-79
2023/07/28 05:46:32;;;;;;;264.15;46.28;;;;;;;-147.95;100.00;58458.38;5005560;28;20054;-77
2023/07/28 05:49:17;;;;;;;268.95;45.38;;;;;;;-147.95;100.00;58458.38;4996706;28;20048;-77
2023/07/28 05:52:04;;;;;;;264.85;46.83;;;;;;;-147.95;100.00;58458.38;5004661;28;20034;-77
2023/07/28 05:54:49;;;;;;;300.83;50.60;;;;;;;-147.95;100.00;58458.38;5004218;28;20493;-77
2023/07/28 05:57:35;;;;;;;268.73;48.65;;;;;;;-147.95;100.00;58458.38;4999108;28;20397;-76
2023/07/28 06:00:21;;;;;;;272.10;49.75;;;;;;;-147.95;100.00;58458.38;5008466;28;20150;-76
2023/07/28 06:03:11;;;;;;;290.85;50.08;;;;;;;-147.95;100.00;58458.38;5003791;28;20046;-76
2023/07/28 06:05:57;;;;;;;315.02;55.03;;;;;;;-147.95;100.00;58458.38;5002128;28;20042;-76
2023/07/28 06:08:42;;;;;;;292.33;53.70;;;;;;;-147.95;100.00;58458.38;5009675;28;20057;-76
2023/07/28 06:11:28;;;;;;;281.95;52.80;;;;;;;-147.95;100.00;58458.38;4975616;28;20093;-76
2023/07/28 06:14:14;;;;;;;284.08;54.45;;;;;;;-147.95;100.00;58458.38;5004775;28;20060;-76
2023/07/28 06:17:00;;;;;;;283.38;58.13;;;;;;;-147.95;100.00;58458.38;4992634;28;20050;-76
2023/07/28 06:19:45;;;;;;;252.82;54.65;;;;;;;-147.95;100.00;58458.38;5002091;28;20045;-77
2023/07/28 06:22:31;;;;;;;279.50;52.55;;;;;;;-147.95;100.00;58458.38;4998439;28;20064;-75
2023/07/28 06:25:17;;;;;;;260.95;54.10;;;;;;;-147.95;100.00;58458.38;4984182;28;20132;-75
2023/07/28 06:28:03;;;;;;;271.30;54.17;;;;;;;-147.95;100.00;58458.38;5005350;28;20033;-75
2023/07/28 06:30:57;;;;;;;245.95;50.70;;;;;;;-147.95;100.00;58458.38;5009326;28;20394;-75
2023/07/28 06:33:43;;;;;;;241.57;51.22;;;;;;;-147.95;100.00;58458.38;5007963;28;20038;-76
2023/07/28 06:36:29;;;;;;;216.07;45.45;;;;;;;-147.95;100.00;58458.38;4994824;28;20428;-76
2023/07/28 06:39:15;;;;;;;177.40;38.63;;;;;;;-147.95;100.00;58458.38;4990646;28;20041;-76
2023/07/28 06:42:00;;;;;;;185.40;40.45;;;;;;;-147.95;100.00;58458.38;4981125;28;20424;-78
2023/07/28 06:44:46;;;;;;;172.23;37.70;;;;;;;-147.95;100.00;58458.38;5006365;28;20104;-76
2023/07/28 06:47:32;;;;;;;146.65;33.72;;;;;;;-147.95;100.00;58458.38;4993762;28;20702;-76
2023/07/28 06:50:18;;;;;;;127.05;32.97;;;;;;;-147.95;100.00;58458.38;4971220;28;20062;-76
2023/07/28 06:53:04;;;;;;;136.77;31.27;;;;;;;-147.95;100.00;58458.38;4965920;28;20120;-76
2023/07/28 06:55:50;;;;;;;125.07;31.30;;;;;;;-147.95;100.00;58458.38;5001400;28;20528;-77
2023/07/28 06:58:36;;;;;;;124.32;28.27;;;;;;;-147.95;100.00;58458.38;4976182;28;20042;-76
2023/07/28 07:01:22;;;;;;;106.13;25.23;;;;;;;-147.95;100.00;58458.38;5004532;28;20754;-77
2023/07/28 07:04:08;;;;;;;87.55;22.92;;;;;;;-147.95;100.00;58458.38;4991814;28;20120;-77
2023/07/28 07:06:53;;;;;;;83.45;23.77;;;;;;;-147.95;100.00;58458.38;5002885;28;20050;-77
2023/07/28 07:09:40;;;;;;;83.18;23.52;;;;;;;-147.95;100.00;58458.38;4991529;28;20046;-77
2023/07/28 07:12:26;;;;;;;80.50;22.08;;;;;;;-147.95;100.00;58458.38;4993433;28;20045;-77
2023/07/28 07:15:12;;;;;;;69.93;21.27;;;;;;;-147.95;100.00;58458.38;5005652;28;20041;-77
2023/07/28 07:17:57;;;;;;;66.85;20.10;;;;;;;-147.95;100.00;58458.38;5005676;28;20052;-77
2023/07/28 07:20:43;;;;;;;67.45;20.27;;;;;;;-147.95;100.00;58458.38;4998554;28;20602;-77
2023/07/28 07:23:29;;;;;;;57.65;19.45;;;;;;;-147.95;100.00;58458.38;5003771;28;20058;-77
2023/07/28 07:26:15;;;;;;;66.95;19.75;;;;;;;-147.95;100.00;58458.38;4993780;28;20405;-77
2023/07/28 07:29:00;;;;;;;63.88;19.30;;;;;;;-147.95;100.00;58458.38;4975397;28;20038;-77
2023/07/28 07:31:46;;;;;;;61.67;19.45;;;;;;;-147.95;100.00;58458.38;4992575;28;20044;-77
2023/07/28 07:34:33;;;;;;;62.85;19.25;;;;;;;-147.95;100.00;58458.38;4994800;28;20046;-77
2023/07/28 07:37:19;;;;;;;60.22;18.30;;;;;;;-147.95;100.00;58458.38;4993959;28;20052;-77
2023/07/28 07:40:07;;;;;;;49.75;17.15;;;;;;;-147.95;100.00;58458.38;5005132;28;20056;-77
2023/07/28 07:42:53;;;;;;;62.83;18.20;;;;;;;-147.95;100.00;58458.38;4993776;28;20188;-77
2023/07/28 07:45:38;;;;;;;60.05;17.33;;;;;;;-147.95;100.00;58458.38;5004864;28;20046;-77
2023/07/28 07:48:24;;;;;;;57.70;17.08;;;;;;;-147.95;100.00;58458.38;4991853;28;20045;-77
2023/07/28 07:51:10;;;;;;;49.00;17.55;;;;;;;-147.95;100.00;58458.38;5007992;28;20042;-77
2023/07/28 07:53:56;;;;;;;47.13;16.27;;;;;;;-147.95;100.00;58458.38;5004958;28;20054;-77
2023/07/28 07:56:42;;;;;;;69.97;18.30;;;;;;;-147.95;100.00;58458.38;4994389;28;20137;-77
2023/07/28 07:59:30;;;;;;;42.33;15.63;;;;;;;-147.95;100.00;58458.38;4974639;28;20482;-77
2023/07/28 08:02:16;;;;;;;40.10;15.25;;;;;;;-147.95;100.00;58458.38;4993696;28;20052;-77
2023/07/28 08:05:02;;;;;;;41.65;15.23;;;;;;;-147.95;100.00;58458.38;5004997;28;20042;-77
2023/07/28 08:07:48;;;;;;;41.53;15.50;;;;;;;-147.95;100.00;58458.38;5001404;28;20073;-77
2023/07/28 08:10:34;;;;;;;43.20;14.30;;;;;;;-147.95;100.00;58458.38;5001099;28;20473;-77
2023/07/28 08:13:20;;;;;;;39.53;13.55;;;;;;;-147.95;100.00;58458.38;4993824;28;20107;-77
2023/07/28 08:16:05;;;;;;;31.52;13.00;;;;;;;-147.95;100.00;58458.38;4987124;28;20096;-77
2023/07/28 08:18:51;;;;;;;36.17;13.48;;;;;;;-147.95;100.00;58458.38;4999029;28;20049;-77
2023/07/28 08:21:37;;;;;;;39.35;13.85;;;;;;;-147.95;100.00;58458.38;4994270;28;21253;-77
2023/07/28 08:24:23;;;;;;;32.97;12.45;;;;;;;-147.95;100.00;58458.38;5004697;28;20127;-77
2023/07/28 08:27:09;;;;;;;29.45;11.20;;;;;;;-147.95;100.00;58458.38;4979387;28;20042;-77
2023/07/28 08:29:54;;;;;;;31.55;11.00;;;;;;;-147.95;100.00;58458.38;5000685;28;20057;-77
2023/07/28 08:32:41;;;;;;;28.27;10.15;;;;;;;-147.95;100.00;58458.38;4976956;28;20656;-77
2023/07/28 08:35:27;;;;;;;28.40;10.88;;;;;;;-147.95;100.00;58458.38;5005632;28;20124;-77
2023/07/28 08:38:12;;;;;;;29.23;10.82;;;;;;;-147.95;100.00;58458.38;4980994;28;20042;-78
2023/07/28 08:40:58;;;;;;;25.27;10.00;;;;;;;-147.95;100.00;58458.38;4980242;28;20117;-77
2023/07/28 08:43:44;;;;;;;29.13;10.43;;;;;;;-147.95;100.00;58458.38;4995583;28;20161;-77
2023/07/28 08:46:34;;;;;;;26.48;10.48;;;;;;;-147.95;100.00;58458.38;4979365;28;20053;-77
2023/07/28 08:49:21;;;;;;;23.98;9.98;;;;;;;-147.95;100.00;58458.38;5003519;28;20042;-77
2023/07/28 08:52:07;;;;;;;29.13;11.50;;;;;;;-147.95;100.00;58458.38;4988082;28;20458;-77
2023/07/28 08:54:53;;;;;;;26.58;11.18;;;;;;;-147.95;100.00;58458.38;4979221;28;20049;-77
2023/07/28 08:57:39;;;;;;;30.85;10.82;;;;;;;-147.95;100.00;58458.38;5001037;28;20081;-77
2023/07/28 09:00:25;;;;;;;25.30;11.40;;;;;;;-147.95;100.00;58458.38;4998420;28;20116;-77
2023/07/28 09:03:11;;;;;;;29.20;11.32;;;;;;;-147.95;100.00;58458.38;4990002;28;20409;-77
2023/07/28 09:06:01;;;;;;;32.90;10.30;;;;;;;-147.95;100.00;58458.38;4987466;28;20054;-77
2023/07/28 09:08:47;;;;;;;21.77;9.95;;;;;;;-147.95;100.00;58458.38;4980067;28;20129;-77
2023/07/28 09:11:33;;;;;;;26.23;8.98;;;;;;;-147.95;100.00;58458.38;4989144;28;20041;-77
2023/07/28 09:14:20;;;;;;;21.90;8.18;;;;;;;-147.95;100.00;58458.38;4980268;28;20095;-77
2023/07/28 09:17:11;;;;;;;17.85;7.68;;;;;;;-147.95;100.00;58458.38;4996118;28;20050;-77
2023/07/28 09:19:57;;;;;;;24.17;8.45;;;;;;;-147.95;100.00;58458.38;4993785;28;20105;-78
2023/07/28 09:22:43;;;;;;;21.73;8.05;;;;;;;-147.95;100.00;58458.38;5000621;28;20483;-77
2023/07/28 09:25:29;;;;;;;21.00;7.57;;;;;;;-147.95;100.00;58458.38;5000173;28;20034;-77
2023/07/28 09:28:15;;;;;;;19.90;7.43;;;;;;;-147.95;100.00;58458.38;5005801;28;20034;-77
2023/07/28 09:31:04;;;;;;;13.07;6.65;;;;;;;-147.95;100.00;58458.38;4997032;28;20468;-77
2023/07/28 09:33:50;;;;;;;14.57;6.72;;;;;;;-147.95;100.00;58458.38;4993626;28;20559;-77
2023/07/28 09:36:38;;;;;;;13.73;6.35;;;;;;;-147.95;100.00;58458.38;4999921;28;20046;-77
2023/07/28 09:39:25;;;;;;;19.42;7.70;;;;;;;-147.95;100.00;58458.38;4996721;28;20041;-77
2023/07/28 09:42:11;;;;;;;15.93;7.03;;;;;;;-147.95;100.00;58458.38;4994616;28;20527;-77
2023/07/28 09:44:57;;;;;;;18.45;6.30;;;;;;;-147.95;100.00;58458.38;5004967;28;20029;-77
2023/07/28 09:47:47;;;;;;;19.48;5.93;;;;;;;-147.95;100.00;58458.38;4979483;28;20038;-77
2023/07/28 09:50:36;;;;;;;14.57;5.60;;;;;;;-147.95;100.00;58458.38;5006488;28;20038;-77
2023/07/28 09:53:24;;;;;;;13.38;5.35;;;;;;;-147.95;100.00;58458.38;5002608;28;20109;-77
2023/07/28 09:56:13;;;;;;;14.20;5.60;;;;;;;-147.95;100.00;58458.38;5005064;28;20045;-77
2023/07/28 09:59:03;;;;;;;11.40;5.43;;;;;;;-147.95;100.00;58458.38;4994897;28;20105;-77
2023/07/28 10:01:49;;;;;;;10.98;4.68;;;;;;;-147.95;100.00;58458.38;5005336;28;20576;-77
2023/07/28 10:04:35;;;;;;;16.55;5.30;;;;;;;-147.95;100.00;58458.38;4998886;28;20038;-77
2023/07/28 10:07:21;;;;;;;16.65;5.10;;;;;;;-147.95;100.00;58458.38;5006146;28;20050;-77
2023/07/28 10:10:10;;;;;;;16.40;4.65;;;;;;;-147.95;100.00;58458.38;4991118;28;20042;-77
2023/07/28 10:12:58;;;;;;;9.27;3.90;;;;;;;-147.95;100.00;58458.38;5006464;28;20034;-77
2023/07/28 10:15:46;;;;;;;10.30;3.22;;;;;;;-147.95;100.00;58458.38;5003491;28;20076;-77
2023/07/28 10:18:32;;;;;;;8.95;3.08;;;;;;;-147.95;100.00;58458.38;5009280;28;20036;-77
2023/07/28 10:21:19;;;;;;;9.55;3.42;;;;;;;-147.95;100.00;58458.38;4982393;28;20046;-77
2023/07/28 10:24:05;;;;;;;9.85;3.25;;;;;;;-147.95;100.00;58458.38;5010502;28;20022;-77
2023/07/28 10:26:57;;;;;;;7.95;3.53;;;;;;;-147.95;100.00;58458.38;4976202;28;20042;-77
2023/07/28 10:29:56;;;;;;;5.60;2.92;;;;;;;-147.95;100.00;58458.38;5007271;28;20453;-77
2023/07/28 10:32:44;;;;;;;10.68;3.88;;;;;;;-147.95;100.00;58458.38;4977748;28;20037;-77
2023/07/28 10:35:31;;;;;;;12.98;4.07;;;;;;;-147.95;100.00;58458.38;4985594;28;20038;-77
2023/07/28 10:38:37;;;;;;;11.00;3.72;;;;;;;-147.95;100.00;58458.38;5006936;28;20044;-77
2023/07/28 10:41:22;;;;;;;8.90;3.88;;;;;;;-147.95;100.00;58458.38;4995067;28;20034;-78
2023/07/28 10:44:08;;;;;;;8.95;3.65;;;;;;;-147.95;100.00;58458.38;5001277;28;20048;-77
2023/07/28 10:46:54;;;;;;;9.55;3.45;;;;;;;-147.95;100.00;58458.38;4998800;28;20817;-77
2023/07/28 10:49:40;;;;;;;8.20;3.60;;;;;;;-147.95;100.00;58458.38;5006468;28;20041;-77
2023/07/28 10:52:27;;;;;;;9.77;4.18;;;;;;;-147.95;100.00;58458.38;5004825;28;20040;-77
2023/07/28 10:55:22;;;;;;;10.25;3.83;;;;;;;-147.95;100.00;58458.38;5000252;28;20109;-77
2023/07/28 10:58:08;;;;;;;5.38;3.17;;;;;;;-147.95;100.00;58458.38;5005054;28;20047;-77
2023/07/28 11:00:54;;;;;;;7.78;3.83;;;;;;;-147.95;100.00;58458.38;4998137;28;20042;-77
2023/07/28 11:03:40;;;;;;;8.65;4.00;;;;;;;-147.95;100.00;58458.38;4992344;28;20035;-78
2023/07/28 11:06:26;;;;;;;7.93;3.13;;;;;;;-147.95;100.00;58458.38;4992832;28;20064;-78
2023/07/28 11:09:14;;;;;;;7.68;3.28;;;;;;;-147.95;100.00;58458.38;4991811;28;20041;-78
2023/07/28 11:12:00;;;;;;;5.85;2.88;;;;;;;-147.95;100.00;58458.38;5004533;28;20041;-78
2023/07/28 11:14:46;;;;;;;9.27;3.95;;;;;;;-147.95;100.00;58458.38;4992100;28;20045;-78
2023/07/28 11:17:32;;;;;;;7.65;3.55;;;;;;;-147.95;100.00;58458.38;4991319;28;20034;-77
2023/07/28 11:20:19;;;;;;;4.22;2.75;;;;;;;-147.95;100.00;58458.38;4987572;28;20089;-78
2023/07/28 11:23:05;;;;;;;7.97;3.42;;;;;;;-147.95;100.00;58458.38;5005989;28;20493;-78
2023/07/28 11:25:51;;;;;;;7.13;3.53;;;;;;;-147.95;100.00;58458.38;4993422;28;20037;-78
2023/07/28 11:28:39;;;;;;;6.18;3.70;;;;;;;-147.95;100.00;58458.38;5008843;28;20077;-78
2023/07/28 11:31:25;;;;;;;15.60;4.15;;;;;;;-147.95;100.00;58458.38;5003746;28;20040;-78
2023/07/28 11:34:15;;;;;;;9.45;3.78;;;;;;;-147.95;100.00;58458.38;5008331;28;20034;-78
2023/07/28 11:37:03;;;;;;;9.38;4.30;;;;;;;-147.95;100.00;58458.38;5005947;28;20046;-77
2023/07/28 11:39:49;;;;;;;5.93;3.78;;;;;;;-147.95;100.00;58458.38;5005458;28;20056;-78
2023/07/28 11:42:37;;;;;;;9.68;3.70;;;;;;;-147.95;100.00;58458.38;4989046;28;20053;-78
2023/07/28 11:45:23;;;;;;;7.47;3.33;;;;;;;-147.95;100.00;58458.38;5003194;28;20093;-78
2023/07/28 11:48:09;;;;;;;9.18;4.40;;;;;;;-147.95;100.00;58458.38;4994221;28;20038;-77
2023/07/28 11:50:56;;;;;;;9.77;4.20;;;;;;;-147.95;100.00;58458.38;5005926;28;20537;-77
2023/07/28 11:53:42;;;;;;;14.77;4.10;;;;;;;-147.95;100.00;58458.38;5024672;28;20042;-80
2023/07/28 11:56:29;;;;;;;15.43;5.20;;;;;;;-147.95;100.00;58458.38;5005455;28;20034;-80
2023/07/28 11:59:16;;;;;;;7.07;3.90;;;;;;;-147.95;100.00;58458.38;4996525;28;20038;-79
2023/07/28 12:02:07;;;;;;;8.82;4.13;;;;;;;-147.95;100.00;58458.38;4982929;28;20084;-80
2023/07/28 12:04:54;;;;;;;9.93;4.05;;;;;;;-147.95;100.00;58458.38;4995782;28;20038;-80
2023/07/28 12:07:40;;;;;;;7.35;4.30;;;;;;;-147.95;100.00;58458.38;5005287;28;20056;-80
2023/07/28 12:10:26;;;;;;;7.65;4.25;;;;;;;-147.95;100.00;58458.38;5007885;28;20041;-80
2023/07/28 12:13:12;;;;;;;7.07;3.75;;;;;;;-147.95;100.00;58458.38;5007464;28;20031;-80
2023/07/28 12:15:58;;;;;;;5.90;3.80;;;;;;;-147.95;100.00;58458.38;5006451;28;20515;-80
2023/07/28 12:18:46;;;;;;;11.65;4.25;;;;;;;-147.95;100.00;58458.38;4996276;28;20050;-80
2023/07/28 12:21:32;;;;;;;6.05;3.70;;;;;;;-147.95;100.00;58458.38;4995489;28;20050;-80
2023/07/28 12:24:18;;;;;;;5.80;3.40;;;;;;;-147.95;100.00;58458.38;4998965;28;20073;-79